createdAt,value
2018-04-26T00:04:43.872Z,15.50
2018-04-26T00:09:48.555Z,15.50
2018-04-26T00:14:53.064Z,15.50
2018-04-26T00:19:56.540Z,15.40
2018-04-26T00:24:59.616Z,15.40
2018-04-26T00:30:02.972Z,15.40
2018-04-26T00:35:08.212Z,15.40
2018-04-26T00:40:12.653Z,15.30
2018-04-26T00:45:17.621Z,15.30
2018-04-26T00:50:22.602Z,15.30
2018-04-26T00:55:26.452Z,15.20
2018-04-26T01:00:31.767Z,15.20
2018-04-26T01:05:37.914Z,15.10
2018-04-26T01:10:41.741Z,15.10
2018-04-26T01:15:45.549Z,15.00
2018-04-26T01:20:50.358Z,15.00
2018-04-26T01:25:52.955Z,14.90
2018-04-26T01:30:55.786Z,14.80
2018-04-26T01:36:00.776Z,14.70
2018-04-26T01:41:05.563Z,14.70
2018-04-26T01:46:08.500Z,14.60
2018-04-26T01:51:14.501Z,14.60
2018-04-26T01:56:18.014Z,14.50
2018-04-26T02:01:22.156Z,14.40
2018-04-26T02:06:26.237Z,14.40
2018-04-26T02:11:29.551Z,14.40
2018-04-26T02:16:34.082Z,14.30
2018-04-26T02:21:37.798Z,14.20
2018-04-26T02:26:41.198Z,14.20
2018-04-26T02:31:45.755Z,14.20
2018-04-26T02:36:50.712Z,14.10
2018-04-26T02:41:54.168Z,14.00
2018-04-26T02:47:00.498Z,14.00
2018-04-26T02:52:03.499Z,14.00
2018-04-26T02:57:08.528Z,13.90
2018-04-26T03:02:13.969Z,13.90
2018-04-26T03:07:18.358Z,13.90
2018-04-26T03:12:22.774Z,13.80
2018-04-26T03:17:27.159Z,13.80
2018-04-26T03:22:31.025Z,13.80
2018-04-26T03:27:36.241Z,13.80
2018-04-26T03:32:39.521Z,13.70
2018-04-26T03:37:44.103Z,13.70
2018-04-26T03:42:47.814Z,13.70
2018-04-26T03:47:51.903Z,13.70
2018-04-26T03:52:55.174Z,13.70
2018-04-26T03:57:59.300Z,13.70
2018-04-26T04:03:14.408Z,13.60
2018-04-26T04:08:18.652Z,13.60
2018-04-26T04:13:24.331Z,13.60
2018-04-26T04:18:32.171Z,13.60
2018-04-26T04:23:35.373Z,13.50
2018-04-26T04:28:39.474Z,13.50
2018-04-26T04:33:43.307Z,13.50
2018-04-26T04:38:48.235Z,13.40
2018-04-26T04:43:52.195Z,13.40
2018-04-26T04:48:55.324Z,13.40
2018-04-26T04:54:00.769Z,13.40
2018-04-26T04:59:03.324Z,13.40
2018-04-26T05:04:07.695Z,13.30
2018-04-26T05:09:12.482Z,13.30
2018-04-26T05:14:15.760Z,13.20
2018-04-26T05:19:19.338Z,13.20
2018-04-26T05:24:24.711Z,13.20
2018-04-26T05:29:27.240Z,13.20
2018-04-26T05:34:31.409Z,13.10
2018-04-26T05:39:33.937Z,13.10
2018-04-26T05:44:36.843Z,13.10
2018-04-26T05:49:44.216Z,13.10
2018-04-26T05:54:47.949Z,13.10
2018-04-26T05:59:50.784Z,13.00
2018-04-26T06:04:53.357Z,13.00
2018-04-26T06:09:56.801Z,13.00
2018-04-26T06:15:02.409Z,13.00
2018-04-26T06:20:07.618Z,12.90
2018-04-26T06:25:11.051Z,12.90
2018-04-26T06:30:13.557Z,12.90
2018-04-26T06:35:18.781Z,12.90
2018-04-26T06:40:21.775Z,12.90
2018-04-26T06:45:25.030Z,13.00
2018-04-26T06:50:28.521Z,13.10
2018-04-26T06:55:31.714Z,13.20
2018-04-26T07:05:43.648Z,13.50
2018-04-26T07:10:50.048Z,13.40
2018-04-26T07:15:52.929Z,13.60
2018-04-26T07:21:00.012Z,13.60
2018-04-26T07:26:04.393Z,13.80
2018-04-26T07:31:09.753Z,14.00
2018-04-26T07:36:14.816Z,14.10
2018-04-26T07:41:18.234Z,14.20
2018-04-26T07:46:20.822Z,14.30
2018-04-26T07:51:25.792Z,14.40
2018-04-26T07:56:30.122Z,14.50
2018-04-26T08:06:40.765Z,14.70
2018-04-26T08:11:47.816Z,14.80
2018-04-26T08:16:56.977Z,14.80
2018-04-26T08:21:59.516Z,14.80
2018-04-26T08:27:04.549Z,14.80
2018-04-26T08:32:08.635Z,14.80
2018-04-26T08:37:11.746Z,14.90
2018-04-26T08:42:18.581Z,15.00
2018-04-26T08:47:21.519Z,15.20
2018-04-26T08:52:26.178Z,15.60
2018-04-26T08:57:29.606Z,15.90
2018-04-26T09:02:37.029Z,16.40
2018-04-26T09:07:40.321Z,16.80
2018-04-26T09:12:43.941Z,17.10
2018-04-26T09:17:47.458Z,17.40
2018-04-26T09:22:50.128Z,17.60
2018-04-26T09:27:54.092Z,17.70
2018-04-26T09:32:57.216Z,17.80
2018-04-26T09:38:00.689Z,17.90
2018-04-26T09:43:04.174Z,18.10
2018-04-26T09:48:08.996Z,18.20
2018-04-26T09:53:13.957Z,18.40
2018-04-26T09:58:16.611Z,18.50
2018-04-26T10:03:20.500Z,18.80
2018-04-26T10:08:24.519Z,18.80
2018-04-26T10:13:27.224Z,18.90
2018-04-26T10:18:31.531Z,18.80
2018-04-26T10:23:35.129Z,18.80
2018-04-26T10:28:38.544Z,18.70
2018-04-26T10:33:41.842Z,18.60
2018-04-26T10:38:45.220Z,18.60
2018-04-26T10:43:48.075Z,18.70
2018-04-26T10:48:51.427Z,18.80
2018-04-26T10:53:56.688Z,19.10
2018-04-26T10:59:00.483Z,19.40
2018-04-26T11:04:04.170Z,19.40
2018-04-26T11:09:08.926Z,19.40
2018-04-26T11:14:11.676Z,19.30
2018-04-26T11:19:15.382Z,19.10
2018-04-26T11:24:18.947Z,19.00
2018-04-26T11:29:22.741Z,18.80
2018-04-26T11:34:25.929Z,18.60
2018-04-26T11:39:29.398Z,18.50
2018-04-26T11:44:32.744Z,18.50
2018-04-26T11:49:35.309Z,18.50
2018-04-26T11:54:38.238Z,18.50
2018-04-26T11:59:44.273Z,18.50
2018-04-26T12:04:47.840Z,18.50
2018-04-26T12:09:50.794Z,18.40
2018-04-26T12:14:53.697Z,18.30
2018-04-26T12:19:57.873Z,18.20
2018-04-26T12:25:02.155Z,18.20
2018-04-26T12:30:05.237Z,18.30
2018-04-26T12:35:09.191Z,18.40
2018-04-26T12:40:14.073Z,18.40
2018-04-26T12:45:17.126Z,18.50
2018-04-26T12:50:20.020Z,18.50
2018-04-26T12:55:24.015Z,18.50
2018-04-26T13:00:26.951Z,18.60
2018-04-26T13:05:30.537Z,18.70
2018-04-26T13:10:33.314Z,18.80
2018-04-26T13:15:36.050Z,19.00
2018-04-26T13:20:38.816Z,19.00
2018-04-26T13:25:41.987Z,18.90
2018-04-26T13:30:45.501Z,18.80
2018-04-26T13:35:48.383Z,18.60
2018-04-26T13:40:51.961Z,18.50
2018-04-26T13:45:54.729Z,18.40
2018-04-26T13:51:03.177Z,18.40
2018-04-26T13:56:06.042Z,18.40
2018-04-26T14:01:09.427Z,18.40
2018-04-26T14:06:13.169Z,18.40
2018-04-26T14:11:16.571Z,18.40
2018-04-26T14:16:19.332Z,18.40
2018-04-26T14:21:22.423Z,18.30
2018-04-26T14:26:28.497Z,18.40
2018-04-26T14:31:31.449Z,18.40
2018-04-26T14:36:34.091Z,18.40
2018-04-26T14:41:37.654Z,18.40
2018-04-26T14:46:40.397Z,18.30
2018-04-26T14:51:44.057Z,18.30
2018-04-26T14:56:46.936Z,18.30
2018-04-26T15:01:50.580Z,18.40
2018-04-26T15:06:53.097Z,18.30
2018-04-26T15:11:55.685Z,18.30
2018-04-26T15:16:58.200Z,18.30
2018-04-26T15:22:00.719Z,18.30
2018-04-26T15:27:03.276Z,18.20
2018-04-26T15:32:06.409Z,18.20
2018-04-26T15:37:08.939Z,18.10
2018-04-26T15:42:11.661Z,18.10
2018-04-26T15:47:14.302Z,18.00
2018-04-26T15:52:28.912Z,17.90
2018-04-26T15:57:49.337Z,17.90
2018-04-26T16:03:04.755Z,17.80
2018-04-26T16:08:25.104Z,17.80
2018-04-26T16:13:45.927Z,17.80
2018-04-26T16:18:54.825Z,17.70
2018-04-26T16:29:47.869Z,17.50
2018-04-26T16:35:02.563Z,17.40
2018-04-26T16:40:05.473Z,17.40
2018-04-26T16:45:08.367Z,17.30
2018-04-26T16:50:10.973Z,17.20
2018-04-26T16:55:13.652Z,17.10
2018-04-26T17:00:16.509Z,17.10
2018-04-26T17:05:19.489Z,17.00
2018-04-26T17:10:23.373Z,16.70
2018-04-26T17:15:26.152Z,16.70
2018-04-26T17:20:28.588Z,16.60
2018-04-26T17:25:31.456Z,16.50
2018-04-26T17:30:34.114Z,16.40
2018-04-26T17:35:37.287Z,16.30
2018-04-26T17:40:40.237Z,16.20
2018-04-26T17:45:43.788Z,16.10
2018-04-26T17:50:46.387Z,16.00
2018-04-26T17:55:50.604Z,15.90
2018-04-26T18:00:55.204Z,15.80
2018-04-26T18:05:58.951Z,15.70
2018-04-26T18:11:02.991Z,15.50
2018-04-26T18:16:25.372Z,15.40
2018-04-26T18:21:29.277Z,15.30
2018-04-26T18:26:37.024Z,15.20
2018-04-26T18:31:40.804Z,15.10
2018-04-26T18:36:43.657Z,15.00
2018-04-26T18:41:49.292Z,14.90
2018-04-26T18:46:53.715Z,14.80
2018-04-26T18:51:56.612Z,14.70
2018-04-26T18:56:59.375Z,14.60
2018-04-26T19:02:01.919Z,14.50
2018-04-26T19:07:04.587Z,14.40
2018-04-26T19:12:07.751Z,14.30
2018-04-26T19:17:10.730Z,14.20
2018-04-26T19:22:13.541Z,14.10
2018-04-26T19:27:17.930Z,14.00
2018-04-26T19:32:22.892Z,13.80
2018-04-26T19:37:26.442Z,13.80
2018-04-26T19:42:29.261Z,13.70
2018-04-26T19:47:32.301Z,13.60
2018-04-26T19:52:35.788Z,13.40
2018-04-26T19:57:38.511Z,13.40
2018-04-26T20:02:41.621Z,13.30
2018-04-26T20:07:45.279Z,13.20
2018-04-26T20:12:49.104Z,13.10
2018-04-26T20:17:52.446Z,12.90
2018-04-26T20:22:55.417Z,12.80
2018-04-26T20:27:59.180Z,12.70
2018-04-26T20:33:02.377Z,12.60
2018-04-26T20:38:05.471Z,12.40
2018-04-26T20:43:09.363Z,12.30
2018-04-26T20:53:41.416Z,12.00
2018-04-26T20:58:44.060Z,12.00
2018-04-26T21:03:47.392Z,11.90
2018-04-26T21:08:50.947Z,11.80
2018-04-26T21:13:53.780Z,11.70
2018-04-26T21:18:57.321Z,11.60
2018-04-26T21:24:00.229Z,11.60
2018-04-26T21:29:02.808Z,11.50
2018-04-26T21:34:05.336Z,11.40
2018-04-26T21:39:08.314Z,11.30
2018-04-26T21:44:13.428Z,11.30
2018-04-26T21:49:16.454Z,11.20
2018-04-26T21:54:25.730Z,11.10
2018-04-26T21:59:34.098Z,11.10
2018-04-26T22:04:37.178Z,11.00
2018-04-26T22:09:41.371Z,10.90
2018-04-26T22:14:45.566Z,10.80
2018-04-26T22:19:48.114Z,10.80
2018-04-26T22:24:50.861Z,10.70
2018-04-26T22:29:58.390Z,10.70
2018-04-26T22:35:01.626Z,10.60
2018-04-26T22:40:04.721Z,10.60
2018-04-26T22:45:07.690Z,10.50
2018-04-26T22:50:11.028Z,10.40
2018-04-26T22:55:13.980Z,10.40
2018-04-26T23:00:16.584Z,10.40
2018-04-26T23:05:19.147Z,10.30
2018-04-26T23:10:21.663Z,10.30
2018-04-26T23:15:24.392Z,10.30
2018-04-26T23:20:27.276Z,10.20
2018-04-26T23:25:31.499Z,10.20
2018-04-26T23:30:34.913Z,10.20
2018-04-26T23:35:38.298Z,10.10
2018-04-26T23:40:41.942Z,10.10
2018-04-26T23:45:44.927Z,10.10
2018-04-26T23:50:48.219Z,10.10
2018-04-26T23:55:51.918Z,10.00
